Time;durP1;ratioP1;P1;durP2;ratioP2;P2;SDS_P1;SDS_P2;PMS_P1;PMS_P2;Temp;Humidity;BMP_temperature;BMP_pressure;BME280_temperature;BME280_humidity;BME280_pressure;Samples;Min_cycle;Max_cycle;Signal;HPM_P1;HPM_P2
2023/10/09 00:00:51;;;;;;;10.65;5.50;;;;;;;;;;4956237;29;20034;-69
2023/10/09 00:03:23;;;;;;;13.32;6.38;;;;;;;;;;4956384;29;20540;-69
2023/10/09 00:05:52;;;;;;;12.38;6.05;;;;;;;;;;4955884;29;20494;-69
2023/10/09 00:08:21;;;;;;;16.38;6.93;;;;;;;;;;4954978;29;20031;-69
2023/10/09 00:10:54;;;;;;;13.02;6.97;;;;;;;;;;4956305;29;20031;-68
2023/10/09 00:13:27;;;;;;;17.85;8.50;;;;;;;;;;4956467;29;20035;-68
2023/10/09 00:15:58;;;;;;;;;;;;;;;;;;4956070;29;20051;-68
2023/10/09 00:18:29;;;;;;;14.48;9.18;;;;;;;;;;4956139;28;20349;-68
2023/10/09 00:21:10;;;;;;;18.27;10.43;;;;;;;;;;4955891;29;20039;-68
2023/10/09 00:23:36;;;;;;;18.77;10.75;;;;;;;;;;4956038;29;20039;-69
2023/10/09 00:26:19;;;;;;;17.08;10.90;;;;;;;;;;4955448;28;20078;-68
2023/10/09 00:28:51;;;;;;;13.52;10.00;;;;;;;;;;4956066;29;20173;-68
2023/10/09 00:31:36;;;;;;;18.55;10.25;;;;;;;;;;4954423;29;20118;-68
2023/10/09 00:34:03;;;;;;;19.58;9.85;;;;;;;;;;4954425;29;20114;-69
2023/10/09 00:36:29;;;;;;;11.38;7.85;;;;;;;;;;4955514;29;20501;-68
2023/10/09 00:38:55;;;;;;;19.25;11.35;;;;;;;;;;4954424;29;20141;-68
2023/10/09 00:41:22;;;;;;;15.57;10.63;;;;;;;;;;4939785;28;20023;-68
2023/10/09 00:43:49;;;;;;;15.77;9.30;;;;;;;;;;4958921;28;20043;-69
2023/10/09 00:49:02;;;;;;;13.30;7.75;;;;;;;;;;4967392;28;20130;-68
2023/10/09 00:51:35;;;;;;;13.47;7.63;;;;;;;;;;4969271;28;20039;-69
2023/10/09 00:54:27;;;;;;;10.83;6.40;;;;;;;;;;4971244;28;20033;-69
2023/10/09 00:56:58;;;;;;;11.88;6.03;;;;;;;;;;4958583;28;20055;-69
2023/10/09 00:59:25;;;;;;;13.55;5.65;;;;;;;;;;4963824;28;20396;-69
2023/10/09 01:02:04;;;;;;;13.45;6.22;;;;;;;;;;4963346;28;20023;-69
2023/10/09 01:04:36;;;;;;;16.42;6.18;;;;;;;;;;4968291;28;20035;-69
2023/10/09 01:07:38;;;;;;;10.88;5.50;;;;;;;;;;4971296;28;20477;-69
2023/10/09 01:09:56;;;;;;;11.68;5.63;;;;;;;;;;4963119;28;20046;-69
2023/10/09 01:12:22;;;;;;;10.70;5.47;;;;;;;;;;4964879;28;20019;-68
2023/10/09 01:14:52;;;;;;;14.25;5.88;;;;;;;;;;4969743;28;20043;-69
2023/10/09 01:17:30;;;;;;;13.45;4.88;;;;;;;;;;4967970;28;20400;-68
2023/10/09 01:19:57;;;;;;;8.68;5.32;;;;;;;;;;4955079;28;20518;-68
2023/10/09 01:22:23;;;;;;;9.30;5.55;;;;;;;;;;4963308;28;20399;-69
2023/10/09 01:24:51;;;;;;;9.70;5.13;;;;;;;;;;4962722;28;20035;-69
2023/10/09 01:27:16;;;;;;;9.35;5.15;;;;;;;;;;4964422;28;20030;-68
2023/10/09 01:29:43;;;;;;;7.80;4.93;;;;;;;;;;4963238;28;20042;-69
2023/10/09 01:32:16;;;;;;;8.48;4.40;;;;;;;;;;4964323;28;20027;-68
2023/10/09 01:34:44;;;;;;;11.52;4.90;;;;;;;;;;4968440;28;20037;-68
2023/10/09 01:37:15;;;;;;;9.98;5.63;;;;;;;;;;4966914;28;20031;-69
2023/10/09 01:39:42;;;;;;;19.00;7.60;;;;;;;;;;4962642;28;20069;-70
2023/10/09 01:42:09;;;;;;;12.35;5.80;;;;;;;;;;4962561;28;20033;-69
2023/10/09 01:44:35;;;;;;;11.88;5.90;;;;;;;;;;4963136;28;20090;-69
2023/10/09 01:47:07;;;;;;;11.10;5.00;;;;;;;;;;4963724;28;20020;-68
2023/10/09 01:49:41;;;;;;;9.68;5.18;;;;;;;;;;4960898;28;20035;-69
2023/10/09 01:52:09;;;;;;;9.10;4.80;;;;;;;;;;4959469;28;20046;-68
2023/10/09 01:54:39;;;;;;;10.70;4.88;;;;;;;;;;4964085;28;20390;-68
2023/10/09 01:57:13;;;;;;;8.60;5.10;;;;;;;;;;4962654;28;20475;-69
2023/10/09 01:59:43;;;;;;;9.25;5.13;;;;;;;;;;4964015;28;20035;-68
2023/10/09 02:02:34;;;;;;;10.15;5.53;;;;;;;;;;4961130;28;20032;-69
2023/10/09 02:05:24;;;;;;;14.18;5.00;;;;;;;;;;4961525;28;20041;-68
2023/10/09 02:07:51;;;;;;;12.20;5.07;;;;;;;;;;4963428;28;20034;-69
2023/10/09 02:10:25;;;;;;;10.65;4.82;;;;;;;;;;4955386;28;20267;-69
2023/10/09 02:12:59;;;;;;;10.38;5.60;;;;;;;;;;4954034;28;20035;-68
2023/10/09 02:21:00;;;;;;;9.20;4.45;;;;;;;;;;4962148;28;20047;-68
2023/10/09 02:26:09;;;;;;;11.32;4.97;;;;;;;;;;4953184;28;20051;-69
2023/10/09 02:28:36;;;;;;;14.65;5.70;;;;;;;;;;4954137;28;20076;-69
2023/10/09 02:31:12;;;;;;;21.27;6.53;;;;;;;;;;4952845;29;20027;-68
2023/10/09 02:33:39;;;;;;;16.48;5.53;;;;;;;;;;4952720;28;20046;-69
2023/10/09 02:36:06;;;;;;;11.05;5.28;;;;;;;;;;4953917;28;20035;-69
2023/10/09 02:38:37;;;;;;;15.05;6.78;;;;;;;;;;4952839;29;20382;-68
2023/10/09 02:43:50;;;;;;;13.20;6.32;;;;;;;;;;4962107;28;20109;-68
2023/10/09 02:46:18;;;;;;;13.25;5.78;;;;;;;;;;4966524;28;20505;-68
2023/10/09 02:48:51;;;;;;;13.48;5.38;;;;;;;;;;4952023;28;20317;-68
2023/10/09 02:53:57;;;;;;;16.30;5.68;;;;;;;;;;4959103;28;20398;-69
2023/10/09 02:56:47;;;;;;;16.08;6.07;;;;;;;;;;4963149;28;20039;-69
2023/10/09 02:59:11;;;;;;;10.38;6.00;;;;;;;;;;4970876;28;20100;-68
2023/10/09 03:01:40;;;;;;;12.68;7.20;;;;;;;;;;4971311;28;20034;-68
2023/10/09 03:04:14;;;;;;;8.68;5.03;;;;;;;;;;4971125;28;20027;-69
2023/10/09 03:06:49;;;;;;;21.02;7.47;;;;;;;;;;4968938;28;20035;-68
2023/10/09 03:09:26;;;;;;;15.43;7.13;;;;;;;;;;4967919;28;20527;-68
2023/10/09 03:12:01;;;;;;;15.63;7.30;;;;;;;;;;4972357;28;20038;-69
2023/10/09 03:14:30;;;;;;;16.55;7.20;;;;;;;;;;4968752;28;20057;-69
2023/10/09 03:16:57;;;;;;;13.52;5.82;;;;;;;;;;4966697;28;20041;-69
2023/10/09 03:19:28;;;;;;;13.07;5.60;;;;;;;;;;4968221;28;20524;-69
2023/10/09 03:21:57;;;;;;;13.77;5.65;;;;;;;;;;4966302;28;20059;-69
2023/10/09 03:24:27;;;;;;;12.55;5.47;;;;;;;;;;4966432;28;20493;-68
2023/10/09 03:26:55;;;;;;;12.68;5.90;;;;;;;;;;4982997;28;20035;-68
2023/10/09 03:29:23;;;;;;;13.48;5.85;;;;;;;;;;4956306;28;20116;-68
2023/10/09 03:31:50;;;;;;;11.55;5.78;;;;;;;;;;4967634;28;20378;-69
2023/10/09 03:34:16;;;;;;;9.00;5.13;;;;;;;;;;4968018;28;20050;-70
2023/10/09 03:36:43;;;;;;;14.07;6.00;;;;;;;;;;4969480;28;20074;-69
2023/10/09 03:39:51;;;;;;;14.68;5.97;;;;;;;;;;4950124;28;20027;-68
2023/10/09 03:41:58;;;;;;;20.25;6.78;;;;;;;;;;4965058;28;20089;-69
2023/10/09 03:44:28;;;;;;;13.40;5.88;;;;;;;;;;4968258;28;20062;-69
2023/10/09 03:46:54;;;;;;;26.23;7.75;;;;;;;;;;4981310;28;20225;-69
2023/10/09 03:49:26;;;;;;;11.30;6.25;;;;;;;;;;4987838;28;20037;-68
2023/10/09 03:51:52;;;;;;;13.32;6.15;;;;;;;;;;4974648;28;20031;-69
2023/10/09 03:54:25;;;;;;;19.10;6.97;;;;;;;;;;4968403;28;20031;-71
2023/10/09 03:56:50;;;;;;;12.63;6.40;;;;;;;;;;4978948;28;20346;-70
2023/10/09 03:59:20;;;;;;;17.90;6.40;;;;;;;;;;4987522;28;20033;-68
2023/10/09 04:01:51;;;;;;;12.52;6.13;;;;;;;;;;4986825;28;20510;-68
2023/10/09 04:04:17;;;;;;;13.15;6.13;;;;;;;;;;4970781;28;20039;-69
2023/10/09 04:06:43;;;;;;;17.63;6.43;;;;;;;;;;4964010;28;20171;-69
2023/10/09 04:11:49;;;;;;;19.90;7.18;;;;;;;;;;4969424;28;20042;-69
2023/10/09 04:14:32;;;;;;;13.48;5.28;;;;;;;;;;4970722;28;20030;-68
2023/10/09 04:22:50;;;;;;;12.60;6.28;;;;;;;;;;4970071;28;20035;-69
2023/10/09 04:25:27;;;;;;;16.02;6.00;;;;;;;;;;4969326;28;20528;-68
2023/10/09 04:30:46;;;;;;;16.50;6.18;;;;;;;;;;4971779;28;20042;-68
2023/10/09 04:36:22;;;;;;;13.93;5.70;;;;;;;;;;4973489;28;20169;-69
2023/10/09 04:41:35;;;;;;;14.82;5.82;;;;;;;;;;4967895;28;20027;-69
2023/10/09 04:44:18;;;;;;;15.27;6.22;;;;;;;;;;4973983;28;20027;-68
2023/10/09 04:57:45;;;;;;;13.38;5.82;;;;;;;;;;4966360;28;20050;-68
2023/10/09 05:02:58;;;;;;;12.18;4.93;;;;;;;;;;4967550;28;20030;-72
2023/10/09 05:08:29;;;;;;;14.73;6.28;;;;;;;;;;4965920;28;20390;-71
2023/10/09 05:16:04;;;;;;;14.07;5.70;;;;;;;;;;4973802;28;20183;-71
2023/10/09 05:18:37;;;;;;;11.88;5.50;;;;;;;;;;4973902;28;20066;-71
2023/10/09 05:23:48;;;;;;;24.20;6.80;;;;;;;;;;4973285;28;20035;-71
2023/10/09 05:26:37;;;;;;;17.88;5.93;;;;;;;;;;4968596;28;20114;-70
2023/10/09 05:29:19;;;;;;;15.95;5.53;;;;;;;;;;4978262;28;20053;-71
2023/10/09 05:34:36;;;;;;;18.25;5.68;;;;;;;;;;4971584;28;20393;-73
2023/10/09 05:37:45;;;;;;;14.45;7.00;;;;;;;;;;4970839;28;20030;-71
2023/10/09 05:47:54;;;;;;;22.42;6.13;;;;;;;;;;4970678;28;20030;-71
2023/10/09 06:06:06;;;;;;;15.77;4.55;;;;;;;;;;4964256;28;20034;-71
2023/10/09 06:19:11;;;;;;;15.27;5.15;;;;;;;;;;4972170;28;20042;-72
2023/10/09 06:24:19;;;;;;;12.43;4.47;;;;;;;;;;4971826;28;20026;-70
2023/10/09 06:29:36;;;;;;;12.00;4.32;;;;;;;;;;4972217;28;20027;-72
2023/10/09 06:34:52;;;;;;;12.32;4.88;;;;;;;;;;4972097;28;20027;-71
2023/10/09 06:45:07;;;;;;;17.20;5.32;;;;;;;;;;4971676;28;20027;-72
2023/10/09 06:47:42;;;;;;;17.75;5.97;;;;;;;;;;4972107;28;20035;-71
2023/10/09 06:50:24;;;;;;;10.93;5.38;;;;;;;;;;4972501;28;20118;-71
2023/10/09 06:52:57;;;;;;;19.05;4.93;;;;;;;;;;4965377;28;20039;-71
2023/10/09 06:55:36;;;;;;;15.38;4.47;;;;;;;;;;4971805;28;20485;-71
2023/10/09 06:58:09;;;;;;;21.63;5.50;;;;;;;;;;4972348;28;20047;-72
2023/10/09 07:00:54;;;;;;;12.27;4.00;;;;;;;;;;4972438;28;20035;-71
2023/10/09 07:03:29;;;;;;;16.65;4.63;;;;;;;;;;4972378;28;20430;-71
2023/10/09 07:06:56;;;;;;;14.35;4.38;;;;;;;;;;4979254;28;20061;-70
2023/10/09 07:24:43;;;;;;;;;;;;;;;;;;4971637;28;20110;-71
2023/10/09 07:27:13;;;;;;;15.05;5.50;;;;;;;;;;4971309;28;19941;-71
2023/10/09 07:29:48;;;;;;;23.75;6.50;;;;;;;;;;4971520;28;20035;-70
2023/10/09 07:32:20;;;;;;;28.65;5.60;;;;;;;;;;4971448;28;20031;-71
2023/10/09 07:34:52;;;;;;;15.52;4.60;;;;;;;;;;4971076;28;20111;-70
2023/10/09 07:37:22;;;;;;;15.90;4.30;;;;;;;;;;4974123;28;20054;-71
2023/10/09 07:40:06;;;;;;;9.68;4.18;;;;;;;;;;4975445;28;20118;-70
2023/10/09 07:42:44;;;;;;;17.27;3.78;;;;;;;;;;4975264;28;20038;-71
2023/10/09 07:48:00;;;;;;;11.00;3.28;;;;;;;;;;4974692;28;20548;-70
2023/10/09 07:50:48;;;;;;;13.13;3.30;;;;;;;;;;4975027;28;20121;-70
2023/10/09 07:53:26;;;;;;;15.40;4.15;;;;;;;;;;4975156;28;20034;-71
2023/10/09 07:56:06;;;;;;;22.30;4.72;;;;;;;;;;4974700;28;20122;-71
2023/10/09 07:58:45;;;;;;;9.02;4.03;;;;;;;;;;4974421;28;20101;-71
2023/10/09 08:01:16;;;;;;;17.08;5.07;;;;;;;;;;4974702;28;20043;-70
2023/10/09 08:03:45;;;;;;;9.35;4.45;;;;;;;;;;4975132;28;20030;-71
2023/10/09 08:12:13;;;;;;;11.23;3.90;;;;;;;;;;4974940;28;20042;-71
2023/10/09 08:17:16;;;;;;;13.77;4.10;;;;;;;;;;4974908;28;20111;-71
2023/10/09 08:19:54;;;;;;;13.23;4.88;;;;;;;;;;4974730;28;20034;-73
2023/10/09 08:24:58;;;;;;;11.02;4.07;;;;;;;;;;4992436;28;20057;-73
2023/10/09 08:33:03;;;;;;;12.27;2.92;;;;;;;;;;4993908;28;20097;-72
2023/10/09 08:35:30;;;;;;;11.75;2.55;;;;;;;;;;4993970;28;20472;-72
2023/10/09 08:38:07;;;;;;;8.90;2.88;;;;;;;;;;4993958;28;20034;-73
2023/10/09 08:40:38;;;;;;;10.98;3.10;;;;;;;;;;4993200;28;20481;-73
2023/10/09 08:43:14;;;;;;;12.75;2.88;;;;;;;;;;4993189;28;20114;-73
2023/10/09 08:45:45;;;;;;;10.02;2.70;;;;;;;;;;4992112;28;20480;-73
2023/10/09 08:48:17;;;;;;;9.82;3.03;;;;;;;;;;4992969;28;20116;-73
2023/10/09 08:50:46;;;;;;;8.65;3.15;;;;;;;;;;4993806;28;20042;-72
2023/10/09 08:53:16;;;;;;;5.10;2.33;;;;;;;;;;4976769;28;20066;-72
2023/10/09 08:55:43;;;;;;;5.47;2.08;;;;;;;;;;4974400;28;20078;-72
2023/10/09 08:58:28;;;;;;;9.38;3.40;;;;;;;;;;4974286;28;20030;-73
2023/10/09 09:00:55;;;;;;;8.13;3.08;;;;;;;;;;4973363;28;20066;-72
2023/10/09 09:03:23;;;;;;;3.85;1.40;;;;;;;;;;4972827;28;20447;-71
2023/10/09 09:05:59;;;;;;;2.83;1.15;;;;;;;;;;4973382;28;20129;-71
2023/10/09 09:08:30;;;;;;;6.13;1.65;;;;;;;;;;4974035;28;20035;-72
2023/10/09 09:11:22;;;;;;;5.28;1.38;;;;;;;;;;4974613;28;20420;-72
2023/10/09 09:14:12;;;;;;;8.10;2.63;;;;;;;;;;4973566;28;20047;-72
2023/10/09 09:16:44;;;;;;;6.00;2.05;;;;;;;;;;4974152;28;20060;-73
2023/10/09 09:21:54;;;;;;;6.47;2.50;;;;;;;;;;4973635;28;20027;-72
2023/10/09 09:26:59;;;;;;;10.57;2.40;;;;;;;;;;4972443;28;20134;-71
2023/10/09 09:29:37;;;;;;;7.18;2.20;;;;;;;;;;4972250;28;20078;-71
2023/10/09 09:32:17;;;;;;;7.82;2.22;;;;;;;;;;4972751;28;20117;-71
2023/10/09 09:34:55;;;;;;;12.88;2.38;;;;;;;;;;4972285;28;20041;-72
2023/10/09 09:37:28;;;;;;;11.20;2.72;;;;;;;;;;4967194;28;20041;-72
2023/10/09 09:40:11;;;;;;;15.85;3.03;;;;;;;;;;4971596;28;20340;-71
2023/10/09 09:42:38;;;;;;;10.13;2.63;;;;;;;;;;4973390;28;20053;-71
2023/10/09 09:45:05;;;;;;;7.57;2.10;;;;;;;;;;4972611;28;20362;-71
2023/10/09 09:47:35;;;;;;;7.20;2.28;;;;;;;;;;4968607;28;20569;-72
2023/10/09 09:50:12;;;;;;;9.40;2.05;;;;;;;;;;4966331;28;20026;-71
2023/10/09 09:52:38;;;;;;;5.35;1.80;;;;;;;;;;4973273;28;20075;-71
2023/10/09 09:55:14;;;;;;;5.78;1.38;;;;;;;;;;4973040;28;20050;-70
2023/10/09 09:57:41;;;;;;;10.43;1.70;;;;;;;;;;4973071;28;20394;-72
2023/10/09 10:00:28;;;;;;;7.72;1.83;;;;;;;;;;4972171;28;20365;-72
2023/10/09 10:02:57;;;;;;;6.93;1.70;;;;;;;;;;4972224;28;20066;-71
2023/10/09 10:05:29;;;;;;;4.13;1.60;;;;;;;;;;4973420;28;20034;-71
2023/10/09 10:07:59;;;;;;;4.18;1.48;;;;;;;;;;4973253;28;20575;-72
2023/10/09 10:10:52;;;;;;;6.47;1.67;;;;;;;;;;4972731;28;20105;-72
2023/10/09 10:13:41;;;;;;;6.43;1.90;;;;;;;;;;4972977;28;20080;-71
2023/10/09 10:16:20;;;;;;;5.53;1.92;;;;;;;;;;4972606;28;20404;-71
2023/10/09 10:19:00;;;;;;;7.72;2.25;;;;;;;;;;4972535;28;20049;-72
2023/10/09 10:24:10;;;;;;;7.88;2.00;;;;;;;;;;4972733;28;20030;-71
2023/10/09 10:26:36;;;;;;;4.32;1.55;;;;;;;;;;4972683;28;20522;-71
2023/10/09 10:29:23;;;;;;;6.15;1.30;;;;;;;;;;4972394;28;20077;-71
2023/10/09 10:31:56;;;;;;;6.55;2.22;;;;;;;;;;4972345;28;20097;-72
2023/10/09 10:34:26;;;;;;;8.40;1.90;;;;;;;;;;4972353;28;20085;-72
2023/10/09 10:36:58;;;;;;;5.53;1.85;;;;;;;;;;4972229;28;20421;-72
2023/10/09 10:39:45;;;;;;;6.80;2.05;;;;;;;;;;4972169;28;20030;-71
2023/10/09 10:45:02;;;;;;;8.43;1.98;;;;;;;;;;4972172;28;20027;-71
2023/10/09 10:47:34;;;;;;;8.85;1.85;;;;;;;;;;4972856;28;20046;-71
2023/10/09 10:50:34;;;;;;;8.27;1.90;;;;;;;;;;4971109;28;20030;-71
2023/10/09 10:53:14;;;;;;;5.40;1.92;;;;;;;;;;4972522;28;20046;-72
2023/10/09 10:55:56;;;;;;;6.18;1.73;;;;;;;;;;4972338;28;20058;-71
2023/10/09 10:58:25;;;;;;;5.57;1.85;;;;;;;;;;4972557;28;20118;-72
2023/10/09 11:06:17;;;;;;;7.15;1.83;;;;;;;;;;4972900;28;20038;-73
2023/10/09 11:08:54;;;;;;;6.50;2.08;;;;;;;;;;4972990;28;20038;-72
2023/10/09 11:11:20;;;;;;;7.88;1.77;;;;;;;;;;4976128;28;20154;-72
2023/10/09 11:13:54;;;;;;;8.23;2.20;;;;;;;;;;4976096;28;20110;-72
2023/10/09 11:16:41;;;;;;;10.40;2.10;;;;;;;;;;4976199;28;20126;-71
2023/10/09 11:24:35;;;;;;;8.63;1.90;;;;;;;;;;4976321;28;20448;-71
2023/10/09 11:27:06;;;;;;;5.28;1.80;;;;;;;;;;4976400;28;20027;-72
2023/10/09 11:32:17;;;;;;;5.65;1.88;;;;;;;;;;4976697;28;20103;-73
2023/10/09 11:34:54;;;;;;;5.47;2.05;;;;;;;;;;4976154;28;20473;-71
2023/10/09 11:40:00;;;;;;;7.00;2.10;;;;;;;;;;4975690;28;20500;-72
2023/10/09 11:45:23;;;;;;;5.63;1.88;;;;;;;;;;4975948;28;20039;-70
2023/10/09 11:47:58;;;;;;;8.00;2.20;;;;;;;;;;4975947;28;20066;-73
2023/10/09 11:55:52;;;;;;;5.60;1.85;;;;;;;;;;4990153;28;20508;-70
2023/10/09 11:58:25;;;;;;;6.88;2.00;;;;;;;;;;4975644;28;20031;-72
2023/10/09 12:00:56;;;;;;;15.65;2.47;;;;;;;;;;4973449;28;20481;-72
2023/10/09 12:03:32;;;;;;;5.85;2.17;;;;;;;;;;4975374;28;20038;-71
2023/10/09 12:06:05;;;;;;;8.73;2.20;;;;;;;;;;4974808;28;20043;-71
2023/10/09 12:08:33;;;;;;;5.43;2.20;;;;;;;;;;4975075;28;20043;-71
2023/10/09 12:10:59;;;;;;;5.72;1.70;;;;;;;;;;4975211;28;20078;-72
2023/10/09 12:13:25;;;;;;;8.20;2.33;;;;;;;;;;4974759;28;20035;-70
2023/10/09 12:15:52;;;;;;;3.65;1.63;;;;;;;;;;4975167;28;20035;-74
2023/10/09 12:18:20;;;;;;;6.95;2.28;;;;;;;;;;4975051;28;20090;-72
2023/10/09 12:20:52;;;;;;;5.15;1.70;;;;;;;;;;4974979;28;20029;-72
2023/10/09 12:23:20;;;;;;;7.97;2.80;;;;;;;;;;4974804;28;20393;-71
2023/10/09 12:25:49;;;;;;;7.75;2.42;;;;;;;;;;4975187;28;20055;-72
2023/10/09 12:28:15;;;;;;;3.65;1.95;;;;;;;;;;4974951;28;20348;-70
2023/10/09 12:30:41;;;;;;;6.03;2.10;;;;;;;;;;4974949;28;20033;-69
2023/10/09 12:33:08;;;;;;;10.15;2.50;;;;;;;;;;4975245;28;20552;-71
2023/10/09 12:35:38;;;;;;;3.78;1.85;;;;;;;;;;4973856;28;20050;-72
2023/10/09 12:38:09;;;;;;;9.82;2.10;;;;;;;;;;4974858;28;20039;-71
2023/10/09 12:40:36;;;;;;;7.65;1.85;;;;;;;;;;4974514;28;20035;-72
2023/10/09 12:43:01;;;;;;;5.13;1.50;;;;;;;;;;4974386;28;20031;-71
2023/10/09 12:45:32;;;;;;;5.78;2.00;;;;;;;;;;4974895;28;20066;-71
2023/10/09 12:48:03;;;;;;;4.35;1.98;;;;;;;;;;4974456;28;20038;-70
2023/10/09 12:50:33;;;;;;;6.78;2.10;;;;;;;;;;4966856;28;20456;-71
2023/10/09 12:53:07;;;;;;;5.70;1.60;;;;;;;;;;4974250;28;20046;-69
2023/10/09 12:55:41;;;;;;;3.85;1.33;;;;;;;;;;4971854;28;20424;-73
2023/10/09 12:58:08;;;;;;;7.47;1.65;;;;;;;;;;4974226;28;20050;-73
2023/10/09 13:00:39;;;;;;;3.58;1.67;;;;;;;;;;4974545;28;20052;-76
2023/10/09 13:03:16;;;;;;;8.52;2.08;;;;;;;;;;4974498;28;20429;-71
2023/10/09 13:05:56;;;;;;;4.45;1.50;;;;;;;;;;4973417;28;20073;-71
2023/10/09 13:08:25;;;;;;;6.97;1.85;;;;;;;;;;4973485;28;20070;-73
2023/10/09 13:11:04;;;;;;;5.95;1.73;;;;;;;;;;4973521;28;20030;-73
2023/10/09 13:13:50;;;;;;;4.75;2.00;;;;;;;;;;4973525;28;20477;-75
2023/10/09 13:16:25;;;;;;;4.03;1.65;;;;;;;;;;4973474;28;20442;-72
2023/10/09 13:18:59;;;;;;;7.40;2.42;;;;;;;;;;4964819;28;20045;-72
2023/10/09 13:21:31;;;;;;;4.70;1.90;;;;;;;;;;4973655;28;20046;-73
2023/10/09 13:24:00;;;;;;;4.88;1.90;;;;;;;;;;4987423;28;20106;-72
2023/10/09 13:26:29;;;;;;;7.00;2.25;;;;;;;;;;4973367;28;20042;-74
2023/10/09 13:28:56;;;;;;;6.28;2.15;;;;;;;;;;4973636;28;20133;-72
2023/10/09 13:31:27;;;;;;;5.05;3.20;;;;;;;;;;4971685;28;20019;-74
2023/10/09 13:33:58;;;;;;;6.53;1.92;;;;;;;;;;4975106;28;20032;-75
2023/10/09 13:36:27;;;;;;;6.70;1.98;;;;;;;;;;4972522;28;20146;-72
2023/10/09 13:38:54;;;;;;;6.68;2.42;;;;;;;;;;4988037;28;20085;-75
2023/10/09 13:41:21;;;;;;;8.52;2.30;;;;;;;;;;4973541;28;20030;-73
2023/10/09 13:43:47;;;;;;;6.85;2.38;;;;;;;;;;4973392;28;20035;-75
2023/10/09 13:46:17;;;;;;;5.40;2.25;;;;;;;;;;4955766;28;20129;-74
2023/10/09 13:48:45;;;;;;;5.70;2.08;;;;;;;;;;4973292;28;20030;-74
2023/10/09 13:51:17;;;;;;;7.32;2.40;;;;;;;;;;4973184;28;20042;-74
2023/10/09 13:53:47;;;;;;;3.70;2.00;;;;;;;;;;4972606;28;20066;-73
2023/10/09 13:56:20;;;;;;;10.02;2.72;;;;;;;;;;4977918;28;20043;-72
2023/10/09 13:58:50;;;;;;;7.80;2.67;;;;;;;;;;4973643;28;20382;-74
2023/10/09 14:01:26;;;;;;;8.05;3.10;;;;;;;;;;4977880;28;20461;-71
2023/10/09 14:03:57;;;;;;;9.02;3.38;;;;;;;;;;4976578;28;20043;-72
2023/10/09 14:06:33;;;;;;;8.48;3.60;;;;;;;;;;4965272;28;20026;-71
2023/10/09 14:09:09;;;;;;;7.28;2.88;;;;;;;;;;4973697;28;20046;-72
2023/10/09 14:11:37;;;;;;;9.35;3.28;;;;;;;;;;4973464;28;20042;-71
2023/10/09 14:14:09;;;;;;;10.57;3.22;;;;;;;;;;4972708;28;20469;-72
2023/10/09 14:16:42;;;;;;;5.65;2.65;;;;;;;;;;4972703;28;20473;-73
2023/10/09 14:19:12;;;;;;;;;;;;;;;;;;4973631;28;20030;-72
2023/10/09 14:21:40;;;;;;;7.75;3.47;;;;;;;;;;4987636;28;20013;-71
2023/10/09 14:24:17;;;;;;;8.65;3.25;;;;;;;;;;4971981;28;20145;-74
2023/10/09 14:26:45;;;;;;;5.78;3.20;;;;;;;;;;4972754;28;20404;-74
2023/10/09 14:29:16;;;;;;;8.48;3.42;;;;;;;;;;4973015;28;20031;-73
2023/10/09 14:31:43;;;;;;;11.43;3.70;;;;;;;;;;4972865;28;20113;-73
2023/10/09 14:34:09;;;;;;;9.18;3.33;;;;;;;;;;4972368;28;20023;-71
2023/10/09 14:36:43;;;;;;;10.05;3.60;;;;;;;;;;4972347;28;20069;-75
2023/10/09 14:39:13;;;;;;;8.77;3.05;;;;;;;;;;4971224;28;20061;-73
2023/10/09 14:41:40;;;;;;;10.10;3.33;;;;;;;;;;4972569;28;20392;-72
2023/10/09 14:44:06;;;;;;;10.93;4.53;;;;;;;;;;4972490;28;20046;-74
2023/10/09 14:46:31;;;;;;;9.13;3.40;;;;;;;;;;4972289;28;20393;-72
2023/10/09 14:48:57;;;;;;;10.60;3.55;;;;;;;;;;4972326;28;20041;-74
2023/10/09 14:51:29;;;;;;;8.68;3.97;;;;;;;;;;4972203;28;20033;-73
2023/10/09 14:54:01;;;;;;;7.80;3.08;;;;;;;;;;4972294;28;20059;-73
2023/10/09 14:56:29;;;;;;;9.73;4.00;;;;;;;;;;4971902;28;20051;-74
2023/10/09 14:58:56;;;;;;;9.80;4.13;;;;;;;;;;4972286;28;20039;-73
2023/10/09 15:01:24;;;;;;;8.57;3.70;;;;;;;;;;4970655;28;20031;-75
2023/10/09 15:03:52;;;;;;;10.18;4.15;;;;;;;;;;4971818;28;20095;-72
2023/10/09 15:06:19;;;;;;;12.15;4.18;;;;;;;;;;4971248;28;20034;-72
2023/10/09 15:08:46;;;;;;;10.98;3.90;;;;;;;;;;4971949;28;20038;-73
2023/10/09 15:11:12;;;;;;;8.13;4.03;;;;;;;;;;4970806;28;20051;-72
2023/10/09 15:13:39;;;;;;;13.32;4.03;;;;;;;;;;4971069;28;20082;-71
2023/10/09 15:16:05;;;;;;;10.85;3.80;;;;;;;;;;4986556;28;20497;-71
2023/10/09 15:18:33;;;;;;;8.98;4.03;;;;;;;;;;4985096;28;20054;-72
2023/10/09 15:20:59;;;;;;;14.07;4.05;;;;;;;;;;4971874;28;20042;-71
2023/10/09 15:23:25;;;;;;;11.70;4.03;;;;;;;;;;4971677;28;20027;-70
2023/10/09 15:25:52;;;;;;;10.75;3.53;;;;;;;;;;4970796;28;20043;-72
2023/10/09 15:28:22;;;;;;;13.85;3.78;;;;;;;;;;4971994;28;20532;-71
2023/10/09 15:30:49;;;;;;;10.80;3.42;;;;;;;;;;4971880;28;20042;-71
2023/10/09 15:33:16;;;;;;;13.63;4.18;;;;;;;;;;4986167;28;20040;-72
2023/10/09 15:35:52;;;;;;;10.15;3.28;;;;;;;;;;4970785;28;20382;-72
2023/10/09 15:38:19;;;;;;;12.25;3.50;;;;;;;;;;4971412;28;20046;-70
2023/10/09 15:40:47;;;;;;;15.18;3.50;;;;;;;;;;4970681;28;20113;-72
2023/10/09 15:43:13;;;;;;;10.93;3.35;;;;;;;;;;4969267;28;20050;-71
2023/10/09 15:45:44;;;;;;;14.82;3.83;;;;;;;;;;4970465;28;20027;-72
2023/10/09 15:48:11;;;;;;;11.50;3.65;;;;;;;;;;4971680;28;20038;-71
2023/10/09 15:50:39;;;;;;;12.95;3.55;;;;;;;;;;4971720;28;20043;-72
2023/10/09 15:53:06;;;;;;;12.48;3.45;;;;;;;;;;4971452;28;20070;-74
2023/10/09 15:55:34;;;;;;;12.27;3.42;;;;;;;;;;4970491;28;20027;-71
2023/10/09 15:58:00;;;;;;;11.18;3.70;;;;;;;;;;4973562;28;20062;-71
2023/10/09 16:00:28;;;;;;;15.98;3.67;;;;;;;;;;4976115;28;20113;-72
2023/10/09 16:02:54;;;;;;;10.30;2.90;;;;;;;;;;4975073;28;20101;-72
2023/10/09 16:05:25;;;;;;;13.60;3.33;;;;;;;;;;4973775;28;20026;-73
2023/10/09 16:07:53;;;;;;;10.05;3.40;;;;;;;;;;4989236;28;20046;-73
2023/10/09 16:10:20;;;;;;;16.70;3.67;;;;;;;;;;4974201;28;20504;-71
2023/10/09 16:12:51;;;;;;;12.00;3.45;;;;;;;;;;4973273;28;20043;-72
2023/10/09 16:15:17;;;;;;;14.40;4.75;;;;;;;;;;4974027;28;20035;-70
2023/10/09 16:17:58;;;;;;;11.07;3.25;;;;;;;;;;4974934;28;20048;-71
2023/10/09 16:20:27;;;;;;;11.73;2.97;;;;;;;;;;4955192;28;20035;-74
2023/10/09 16:22:55;;;;;;;10.82;2.90;;;;;;;;;;4953529;29;20052;-72
2023/10/09 16:25:24;;;;;;;10.13;3.45;;;;;;;;;;4954703;28;20106;-72
2023/10/09 16:27:50;;;;;;;14.75;3.63;;;;;;;;;;4955053;28;20027;-72
2023/10/09 16:30:22;;;;;;;12.60;3.63;;;;;;;;;;4970244;28;20066;-71
2023/10/09 16:32:50;;;;;;;14.13;3.60;;;;;;;;;;4972949;28;20045;-71
2023/10/09 16:35:16;;;;;;;17.80;3.55;;;;;;;;;;4971265;28;20035;-70
2023/10/09 16:37:42;;;;;;;11.65;3.67;;;;;;;;;;4970666;28;20038;-69
2023/10/09 16:40:13;;;;;;;9.77;3.30;;;;;;;;;;4973256;28;20093;-71
2023/10/09 16:42:42;;;;;;;10.02;3.40;;;;;;;;;;4974228;28;20038;-70
2023/10/09 16:45:12;;;;;;;11.27;3.90;;;;;;;;;;4973212;28;20038;-68
2023/10/09 16:47:38;;;;;;;10.48;3.40;;;;;;;;;;4973038;28;20114;-69
2023/10/09 16:50:11;;;;;;;12.70;3.55;;;;;;;;;;4955662;28;20041;-68
2023/10/09 16:52:38;;;;;;;12.50;3.67;;;;;;;;;;4973244;28;20061;-70
2023/10/09 16:55:10;;;;;;;11.15;4.15;;;;;;;;;;4972734;28;20035;-68
2023/10/09 16:57:41;;;;;;;10.73;3.70;;;;;;;;;;4972784;28;20112;-69
2023/10/09 17:00:28;;;;;;;12.85;3.65;;;;;;;;;;4972683;28;20031;-70
2023/10/09 17:02:58;;;;;;;10.95;3.67;;;;;;;;;;4968295;28;20099;-69
2023/10/09 17:05:32;;;;;;;10.27;3.92;;;;;;;;;;4971968;28;20506;-69
2023/10/09 17:07:59;;;;;;;9.07;3.35;;;;;;;;;;4972643;28;20039;-69
2023/10/09 17:10:27;;;;;;;10.90;3.58;;;;;;;;;;4973828;28;20112;-68
2023/10/09 17:12:54;;;;;;;11.73;3.90;;;;;;;;;;4973850;28;20035;-69
2023/10/09 17:15:19;;;;;;;15.85;4.03;;;;;;;;;;4973042;28;20027;-71
2023/10/09 17:17:49;;;;;;;8.82;3.22;;;;;;;;;;4973964;28;20516;-69
2023/10/09 17:20:21;;;;;;;13.07;3.53;;;;;;;;;;4973744;28;20462;-68
2023/10/09 17:22:50;;;;;;;15.00;3.47;;;;;;;;;;4973876;28;20054;-69
2023/10/09 17:25:16;;;;;;;14.88;3.95;;;;;;;;;;4973125;28;20073;-70
2023/10/09 17:27:45;;;;;;;15.30;3.55;;;;;;;;;;4973644;28;20043;-69
2023/10/09 17:30:15;;;;;;;8.15;3.35;;;;;;;;;;4973759;28;20791;-69
2023/10/09 17:32:47;;;;;;;10.77;3.50;;;;;;;;;;4973660;28;20035;-69
2023/10/09 17:35:13;;;;;;;12.27;3.60;;;;;;;;;;4973295;28;20030;-70
2023/10/09 17:37:45;;;;;;;12.07;3.58;;;;;;;;;;4985107;28;20158;-68
2023/10/09 17:40:18;;;;;;;11.70;3.13;;;;;;;;;;4973181;28;20065;-70
2023/10/09 17:42:44;;;;;;;12.68;3.75;;;;;;;;;;4973663;28;20374;-68
2023/10/09 17:45:13;;;;;;;12.40;3.60;;;;;;;;;;4967047;28;20026;-70
2023/10/09 17:47:39;;;;;;;10.75;3.97;;;;;;;;;;4970861;28;20030;-69
2023/10/09 17:50:12;;;;;;;10.52;3.65;;;;;;;;;;4972408;28;20102;-67
2023/10/09 17:52:38;;;;;;;;;;;;;;;;;;4973118;28;20515;-67
2023/10/09 17:55:07;;;;;;;10.70;4.20;;;;;;;;;;4971741;28;19914;-68
2023/10/09 17:57:40;;;;;;;12.73;3.78;;;;;;;;;;4972580;28;20499;-70
2023/10/09 18:00:21;;;;;;;9.60;3.75;;;;;;;;;;4972931;28;20162;-68
2023/10/09 18:02:51;;;;;;;12.20;3.58;;;;;;;;;;4972585;28;20042;-68